createdAt,value
2023-04-07T04:00:34.407Z,4.26
2023-04-07T04:01:35.389Z,4.28
2023-04-07T04:02:35.462Z,4.32
2023-04-07T04:03:35.407Z,4.32
2023-04-07T04:04:35.335Z,4.36
2023-04-07T04:05:35.299Z,4.33
2023-04-07T04:06:35.299Z,4.39
2023-04-07T04:07:35.280Z,4.36
2023-04-07T04:08:35.258Z,4.42
2023-04-07T04:09:35.262Z,4.43
2023-04-07T04:10:35.239Z,4.43
2023-04-07T04:11:35.237Z,4.42
2023-04-07T04:12:35.210Z,4.43
2023-04-07T04:13:35.210Z,4.37
2023-04-07T04:14:35.192Z,4.34
2023-04-07T04:15:35.191Z,4.36
2023-04-07T04:16:35.206Z,4.32
2023-04-07T04:17:35.210Z,4.34
2023-04-07T04:18:35.153Z,4.34
2023-04-07T04:19:35.183Z,4.36
2023-04-07T04:20:35.118Z,4.37
2023-04-07T04:21:35.120Z,4.34
2023-04-07T04:22:35.100Z,4.32
2023-04-07T04:23:35.103Z,4.32
2023-04-07T04:24:35.091Z,4.32
2023-04-07T04:25:35.075Z,4.28
2023-04-07T04:26:35.115Z,4.32
2023-04-07T04:27:35.049Z,4.33
2023-04-07T04:28:35.058Z,4.29
2023-04-07T04:29:35.044Z,4.37
2023-04-07T04:30:35.027Z,4.33
2023-04-07T04:31:35.067Z,4.33
2023-04-07T04:32:35.035Z,4.34
2023-04-07T04:33:35.065Z,4.34
2023-04-07T04:34:34.987Z,4.33
2023-04-07T04:35:34.987Z,4.32
2023-04-07T04:36:36.624Z,4.33
2023-04-07T04:37:34.957Z,4.36
2023-04-07T04:38:34.955Z,4.37
2023-04-07T04:39:34.925Z,4.37
2023-04-07T04:40:34.919Z,4.37
2023-04-07T04:41:34.927Z,4.39
2023-04-07T04:42:34.899Z,4.40
2023-04-07T04:43:34.887Z,4.42
2023-04-07T04:44:34.906Z,4.37
2023-04-07T04:45:34.884Z,4.42
2023-04-07T04:46:34.876Z,4.43
2023-04-07T04:47:34.886Z,4.44
2023-04-07T04:48:34.833Z,4.44
2023-04-07T04:49:34.876Z,4.47
2023-04-07T04:50:34.825Z,4.46
2023-04-07T04:51:34.845Z,4.46
2023-04-07T04:52:34.848Z,4.47
2023-04-07T04:53:34.846Z,4.52
2023-04-07T04:54:34.802Z,4.54
2023-04-07T04:55:34.760Z,4.57
2023-04-07T04:56:34.838Z,4.58
2023-04-07T04:57:34.744Z,4.59
2023-04-07T04:58:34.746Z,4.57
2023-04-07T04:59:34.763Z,4.57
2023-04-07T05:00:34.708Z,4.54
2023-04-07T05:01:34.739Z,4.52
2023-04-07T05:02:34.938Z,4.51
2023-04-07T05:03:34.770Z,4.46
2023-04-07T05:04:34.828Z,4.51
2023-04-07T05:05:34.660Z,4.52
2023-04-07T05:06:34.634Z,4.54
2023-04-07T05:07:34.699Z,4.51
2023-04-07T05:08:34.657Z,4.59
2023-04-07T05:09:34.671Z,4.57
2023-04-07T05:10:34.601Z,4.59
2023-04-07T05:11:34.617Z,4.62
2023-04-07T05:12:34.617Z,4.64
2023-04-07T05:13:34.603Z,4.69
2023-04-07T05:14:35.338Z,4.73
2023-04-07T05:15:34.660Z,4.75
2023-04-07T05:16:34.636Z,4.77
2023-04-07T05:17:34.551Z,4.76
2023-04-07T05:18:34.505Z,4.79
2023-04-07T05:19:34.538Z,4.88
2023-04-07T05:20:34.486Z,4.88
2023-04-07T05:21:34.494Z,4.89
2023-04-07T05:22:34.489Z,4.89
2023-04-07T05:23:34.469Z,4.92
2023-04-07T05:24:34.503Z,4.92
2023-04-07T05:25:34.458Z,4.94
2023-04-07T05:26:34.430Z,4.91
2023-04-07T05:27:34.424Z,4.92
2023-04-07T05:28:34.418Z,4.88
2023-04-07T05:29:34.440Z,4.89
2023-04-07T05:30:34.513Z,4.88
2023-04-07T05:31:34.447Z,4.89
2023-04-07T05:32:34.416Z,4.86
2023-04-07T05:33:34.458Z,4.80
2023-04-07T05:34:34.341Z,4.76
2023-04-07T05:35:34.339Z,4.76
2023-04-07T05:36:34.337Z,4.70
2023-04-07T05:37:34.331Z,4.73
2023-04-07T05:38:34.316Z,4.76
2023-04-07T05:39:34.305Z,4.75
2023-04-07T05:40:36.917Z,4.72
2023-04-07T05:41:34.370Z,4.73
2023-04-07T05:42:34.271Z,4.69
2023-04-07T05:43:34.309Z,4.65
2023-04-07T05:44:34.313Z,4.61
2023-04-07T05:45:34.308Z,4.61
2023-04-07T05:46:34.215Z,4.62
2023-04-07T05:47:34.270Z,4.61
2023-04-07T05:48:34.193Z,4.65
2023-04-07T05:49:34.215Z,4.69
2023-04-07T05:50:34.216Z,4.64
2023-04-07T05:51:34.187Z,4.64
2023-04-07T05:52:34.154Z,4.67
2023-04-07T05:53:34.166Z,4.65
2023-04-07T05:54:34.139Z,4.65
2023-04-07T05:55:34.163Z,4.67
2023-04-07T05:56:34.177Z,4.72
2023-04-07T05:57:34.103Z,4.75
2023-04-07T05:58:34.104Z,4.80
2023-04-07T05:59:34.244Z,4.86
2023-04-07T06:00:34.453Z,4.86
2023-04-07T06:01:34.089Z,4.89
2023-04-07T06:02:34.194Z,4.94
2023-04-07T06:03:34.145Z,4.95
2023-04-07T06:04:34.033Z,4.99
2023-04-07T06:05:34.113Z,5.10
2023-04-07T06:06:34.036Z,5.13
2023-04-07T06:07:34.021Z,5.14
2023-04-07T06:08:34.002Z,5.22
2023-04-07T06:09:35.070Z,5.17
2023-04-07T06:10:33.993Z,5.27
2023-04-07T06:11:34.057Z,5.28
2023-04-07T06:12:33.948Z,5.38
2023-04-07T06:13:33.932Z,5.43
2023-04-07T06:14:33.943Z,5.48
2023-04-07T06:15:33.942Z,5.49
2023-04-07T06:16:33.972Z,5.49
2023-04-07T06:17:33.999Z,5.49
2023-04-07T06:18:33.895Z,5.50
2023-04-07T06:19:33.870Z,5.56
2023-04-07T06:20:33.873Z,5.56
2023-04-07T06:21:33.866Z,5.59
2023-04-07T06:22:33.839Z,5.64
2023-04-07T06:23:33.843Z,5.70
2023-04-07T06:24:34.362Z,5.67
2023-04-07T06:25:33.852Z,5.68
2023-04-07T06:26:33.892Z,5.71
2023-04-07T06:27:33.780Z,5.57
2023-04-07T06:28:33.804Z,5.59
2023-04-07T06:29:33.766Z,5.60
2023-04-07T06:30:33.811Z,5.64
2023-04-07T06:31:33.747Z,5.71
2023-04-07T06:32:33.785Z,5.78
2023-04-07T06:33:33.734Z,5.82
2023-04-07T06:34:33.721Z,5.75
2023-04-07T06:35:33.707Z,5.74
2023-04-07T06:36:33.821Z,5.74
2023-04-07T06:37:33.687Z,5.67
2023-04-07T06:38:33.689Z,5.71
2023-04-07T06:39:33.770Z,5.78
2023-04-07T06:40:33.637Z,5.70
2023-04-07T06:41:33.662Z,5.59
2023-04-07T06:42:33.645Z,5.55
2023-04-07T06:43:33.628Z,5.46
2023-04-07T06:44:33.599Z,5.45
2023-04-07T06:45:33.611Z,5.50
2023-04-07T06:46:33.660Z,5.53
2023-04-07T06:47:33.652Z,5.49
2023-04-07T06:48:33.563Z,5.43
2023-04-07T06:49:35.677Z,5.41
2023-04-07T06:50:33.552Z,5.35
2023-04-07T06:51:33.558Z,5.28
2023-04-07T06:52:33.516Z,5.19
2023-04-07T06:53:33.516Z,5.17
2023-04-07T06:54:33.580Z,5.16
2023-04-07T06:55:33.633Z,5.17
2023-04-07T06:56:33.545Z,5.16
2023-04-07T06:57:33.469Z,5.07
2023-04-07T06:58:33.470Z,5.09
2023-04-07T06:59:33.464Z,5.14
2023-04-07T07:00:33.478Z,5.16
2023-04-07T07:01:33.639Z,5.17
2023-04-07T07:02:33.552Z,5.05
2023-04-07T07:03:33.539Z,5.07
2023-04-07T07:04:33.450Z,5.05
2023-04-07T07:05:33.395Z,5.10
2023-04-07T07:06:33.412Z,5.13
2023-04-07T07:07:33.368Z,5.12
2023-04-07T07:08:33.376Z,5.13
2023-04-07T07:09:33.382Z,5.16
2023-04-07T07:10:33.341Z,5.13
2023-04-07T07:11:33.341Z,5.16
2023-04-07T07:12:33.303Z,5.28
2023-04-07T07:13:33.308Z,5.30
2023-04-07T07:14:33.288Z,5.37
2023-04-07T07:15:33.357Z,5.43
2023-04-07T07:16:33.314Z,5.49
2023-04-07T07:17:33.301Z,5.53
2023-04-07T07:18:33.245Z,5.60
2023-04-07T07:19:33.236Z,5.70
2023-04-07T07:20:33.242Z,5.81
2023-04-07T07:21:33.826Z,5.92
2023-04-07T07:22:33.216Z,6.09
2023-04-07T07:23:33.200Z,6.16
2023-04-07T07:24:33.449Z,6.19
2023-04-07T07:25:33.179Z,6.11
2023-04-07T07:26:33.182Z,6.06
2023-04-07T07:27:33.155Z,6.14
2023-04-07T07:28:33.142Z,6.16
2023-04-07T07:29:33.145Z,6.03
2023-04-07T07:30:33.142Z,6.13
2023-04-07T07:31:33.205Z,6.33
2023-04-07T07:32:33.132Z,6.51
2023-04-07T07:33:33.090Z,6.53
2023-04-07T07:34:33.075Z,6.43
2023-04-07T07:35:33.077Z,6.41
2023-04-07T07:36:33.277Z,6.50
2023-04-07T07:37:33.046Z,6.59
2023-04-07T07:38:34.656Z,6.69
2023-04-07T07:39:33.037Z,6.63
2023-04-07T07:40:33.006Z,6.54
2023-04-07T07:41:33.033Z,6.32
2023-04-07T07:42:32.999Z,6.22
2023-04-07T07:43:32.997Z,6.26
2023-04-07T07:44:32.972Z,6.40
2023-04-07T07:45:32.970Z,6.51
2023-04-07T07:46:33.030Z,6.58
2023-04-07T07:47:32.954Z,6.56
2023-04-07T07:48:32.937Z,6.48
2023-04-07T07:49:32.994Z,6.36
2023-04-07T07:50:32.905Z,6.32
2023-04-07T07:51:32.903Z,6.33
2023-04-07T07:52:32.893Z,6.35
2023-04-07T07:53:32.858Z,6.22
2023-04-07T07:54:32.885Z,6.19
2023-04-07T07:55:32.866Z,6.21
2023-04-07T07:56:32.995Z,6.36
2023-04-07T07:57:32.825Z,6.40
2023-04-07T07:58:32.819Z,6.43
2023-04-07T07:59:32.804Z,6.41
2023-04-07T08:00:32.808Z,6.44
2023-04-07T08:01:32.853Z,6.44
2023-04-07T08:02:32.892Z,6.47
2023-04-07T08:03:33.031Z,6.50
2023-04-07T08:04:32.829Z,6.61
2023-04-07T08:05:32.744Z,6.62
2023-04-07T08:06:32.748Z,6.76
2023-04-07T08:07:32.796Z,6.84
2023-04-07T08:08:32.734Z,6.86
2023-04-07T08:09:32.706Z,6.87
2023-04-07T08:10:32.714Z,6.80
2023-04-07T08:11:32.682Z,6.73
2023-04-07T08:12:32.667Z,6.73
2023-04-07T08:13:32.652Z,6.72
2023-04-07T08:14:32.654Z,6.76
2023-04-07T08:15:32.624Z,6.83
2023-04-07T08:16:33.049Z,6.87
2023-04-07T08:17:32.630Z,6.84
2023-04-07T08:18:32.593Z,6.84
2023-04-07T08:19:32.642Z,6.83
2023-04-07T08:20:32.585Z,6.84
2023-04-07T08:21:32.563Z,6.97
2023-04-07T08:22:32.660Z,7.01
2023-04-07T08:23:32.554Z,7.13
2023-04-07T08:24:32.529Z,7.24
2023-04-07T08:25:32.556Z,7.38
2023-04-07T08:26:32.518Z,7.44
2023-04-07T08:27:32.527Z,7.35
2023-04-07T08:28:32.492Z,7.42
2023-04-07T08:29:32.495Z,7.50
2023-04-07T08:30:32.706Z,7.63
2023-04-07T08:31:32.528Z,7.72
2023-04-07T08:32:32.522Z,7.82
2023-04-07T08:33:32.431Z,7.84
2023-04-07T08:34:32.459Z,7.81
2023-04-07T08:35:32.422Z,7.74
2023-04-07T08:36:32.522Z,7.72
2023-04-07T08:37:32.382Z,7.75
2023-04-07T08:38:32.388Z,7.82
2023-04-07T08:39:32.430Z,7.89
2023-04-07T08:40:32.388Z,7.87
2023-04-07T08:41:32.411Z,7.96
2023-04-07T08:42:32.362Z,8.08
2023-04-07T08:43:32.341Z,8.18
2023-04-07T08:44:32.345Z,8.25
2023-04-07T08:45:32.318Z,8.36
2023-04-07T08:46:32.372Z,8.36
2023-04-07T08:47:32.338Z,8.40
2023-04-07T08:48:32.291Z,8.33
2023-04-07T08:49:32.240Z,8.37
2023-04-07T08:50:32.241Z,8.14
2023-04-07T08:51:32.238Z,8.15
2023-04-07T08:52:33.048Z,7.99
2023-04-07T08:53:32.244Z,7.81
2023-04-07T08:54:32.205Z,7.67
2023-04-07T08:55:32.210Z,7.55
2023-04-07T08:56:32.169Z,7.62
2023-04-07T08:57:32.199Z,7.62
2023-04-07T08:58:32.151Z,7.63
2023-04-07T08:59:32.143Z,7.75
2023-04-07T09:00:32.163Z,7.84
2023-04-07T09:01:32.240Z,7.78
2023-04-07T09:02:32.296Z,7.77
2023-04-07T09:03:32.206Z,7.77
2023-04-07T09:04:32.098Z,7.77
2023-04-07T09:05:32.094Z,7.89
2023-04-07T09:06:32.093Z,7.90
2023-04-07T09:07:32.273Z,7.96
2023-04-07T09:08:32.063Z,7.99
2023-04-07T09:09:32.036Z,7.99
2023-04-07T09:10:32.042Z,8.04
2023-04-07T09:11:32.037Z,8.08
2023-04-07T09:12:32.049Z,8.10
2023-04-07T09:13:32.052Z,8.14
2023-04-07T09:14:32.068Z,8.15
2023-04-07T09:15:31.981Z,8.15
2023-04-07T09:16:32.028Z,8.12
2023-04-07T09:17:32.012Z,7.99
2023-04-07T09:18:31.938Z,7.85
2023-04-07T09:19:32.015Z,7.52
2023-04-07T09:20:31.922Z,7.38
2023-04-07T09:21:31.922Z,7.35
2023-04-07T09:22:31.969Z,7.24
2023-04-07T09:23:31.989Z,7.15
2023-04-07T09:24:31.884Z,7.17
2023-04-07T09:25:31.874Z,7.16
2023-04-07T09:26:31.917Z,7.05
2023-04-07T09:27:31.852Z,7.12
2023-04-07T09:28:31.839Z,7.17
2023-04-07T09:29:31.862Z,7.24
2023-04-07T09:30:31.820Z,7.40
2023-04-07T09:31:31.815Z,7.38
2023-04-07T09:32:31.884Z,7.42
2023-04-07T09:33:31.791Z,7.44
2023-04-07T09:34:31.777Z,7.38
2023-04-07T09:35:31.812Z,7.22
2023-04-07T09:36:31.750Z,7.09
2023-04-07T09:37:31.836Z,7.04
2023-04-07T09:38:31.740Z,6.98
2023-04-07T09:39:31.799Z,7.02
2023-04-07T09:40:31.707Z,6.94
2023-04-07T09:41:31.711Z,6.90
2023-04-07T09:42:32.395Z,6.86
2023-04-07T09:43:31.727Z,6.91
2023-04-07T09:44:31.734Z,6.89
2023-04-07T09:45:35.287Z,6.86
2023-04-07T09:46:31.699Z,6.87
2023-04-07T09:47:32.200Z,6.95
2023-04-07T09:48:31.640Z,6.90
2023-04-07T09:49:31.618Z,6.94
2023-04-07T09:50:31.625Z,6.95
2023-04-07T09:51:31.592Z,6.91
2023-04-07T09:52:31.615Z,6.89
2023-04-07T09:53:31.558Z,6.94
2023-04-07T09:54:31.593Z,7.02
2023-04-07T09:55:31.548Z,7.01
2023-04-07T09:56:31.552Z,7.05
2023-04-07T09:57:31.594Z,6.95
2023-04-07T09:58:31.549Z,6.89
2023-04-07T09:59:31.509Z,6.97
2023-04-07T10:00:31.499Z,7.02
2023-04-07T10:01:31.568Z,6.95
2023-04-07T10:02:31.559Z,6.89
2023-04-07T10:03:31.533Z,6.91
2023-04-07T10:04:31.496Z,6.89
2023-04-07T10:05:31.442Z,6.90
2023-04-07T10:06:31.445Z,6.91
2023-04-07T10:07:31.418Z,7.02
2023-04-07T10:08:31.424Z,7.02
2023-04-07T10:09:31.402Z,7.04
2023-04-07T10:10:31.401Z,7.07
2023-04-07T10:11:31.400Z,7.08
2023-04-07T10:12:31.382Z,7.08
2023-04-07T10:13:31.462Z,7.07
2023-04-07T10:14:31.380Z,7.09
2023-04-07T10:15:31.364Z,7.12
2023-04-07T10:16:31.377Z,7.04
2023-04-07T10:17:31.341Z,7.05
2023-04-07T10:18:31.346Z,7.07
2023-04-07T10:19:31.297Z,7.02
2023-04-07T10:20:31.364Z,7.05
2023-04-07T10:21:32.817Z,6.99
2023-04-07T10:22:31.309Z,6.90
2023-04-07T10:23:31.441Z,6.89
2023-04-07T10:24:31.239Z,6.84
2023-04-07T10:25:31.921Z,6.81
2023-04-07T10:26:31.255Z,6.73
2023-04-07T10:27:31.194Z,6.76
2023-04-07T10:28:31.217Z,6.81
2023-04-07T10:29:31.215Z,6.76
2023-04-07T10:30:34.062Z,6.62
2023-04-07T10:31:31.325Z,6.53
2023-04-07T10:32:31.218Z,6.46
2023-04-07T10:33:31.223Z,6.54
2023-04-07T10:34:31.197Z,6.56
2023-04-07T10:35:31.128Z,6.59
2023-04-07T10:36:31.108Z,6.66
2023-04-07T10:37:31.120Z,6.69
2023-04-07T10:38:31.094Z,6.84
2023-04-07T10:39:31.090Z,6.94
2023-04-07T10:40:31.082Z,6.97
2023-04-07T10:41:31.090Z,6.98
2023-04-07T10:42:31.104Z,7.05
2023-04-07T10:43:31.058Z,7.12
2023-04-07T10:44:31.033Z,7.09
2023-04-07T10:45:31.199Z,7.12
2023-04-07T10:46:31.045Z,6.99
2023-04-07T10:47:31.085Z,6.99
2023-04-07T10:48:30.983Z,7.04
2023-04-07T10:49:30.963Z,7.17
2023-04-07T10:50:30.972Z,7.24
2023-04-07T10:51:30.956Z,7.38
2023-04-07T10:52:30.930Z,7.45
2023-04-07T10:53:30.911Z,7.32
2023-04-07T10:54:30.987Z,7.02
2023-04-07T10:55:30.980Z,6.90
2023-04-07T10:56:30.911Z,6.95
2023-04-07T10:57:31.063Z,6.99
2023-04-07T10:58:30.895Z,7.15
2023-04-07T10:59:30.966Z,7.08
2023-04-07T11:00:30.861Z,7.15
2023-04-07T11:01:30.912Z,7.24
2023-04-07T11:02:31.137Z,7.23
2023-04-07T11:03:30.978Z,7.32
2023-04-07T11:04:30.985Z,7.41
2023-04-07T11:05:30.883Z,7.37
2023-04-07T11:06:30.841Z,7.32
2023-04-07T11:07:30.775Z,7.16
2023-04-07T11:08:30.763Z,6.98
2023-04-07T11:09:30.770Z,6.89
2023-04-07T11:10:31.020Z,6.83
2023-04-07T11:11:30.779Z,6.81
2023-04-07T11:12:31.398Z,6.87
2023-04-07T11:13:30.704Z,6.97
2023-04-07T11:14:30.728Z,7.07
2023-04-07T11:15:30.836Z,7.16
2023-04-07T11:16:30.785Z,7.20
2023-04-07T11:17:31.048Z,7.13
2023-04-07T11:18:30.750Z,7.12
2023-04-07T11:19:30.668Z,7.16
2023-04-07T11:20:30.654Z,7.26
2023-04-07T11:21:30.756Z,7.04
2023-04-07T11:22:30.801Z,6.90
2023-04-07T11:23:30.666Z,6.72
2023-04-07T11:24:30.592Z,6.61
2023-04-07T11:25:30.603Z,6.58
2023-04-07T11:26:30.598Z,6.56
2023-04-07T11:27:30.600Z,6.46
2023-04-07T11:28:30.731Z,6.50
2023-04-07T11:29:30.589Z,6.51
2023-04-07T11:30:30.555Z,6.59
2023-04-07T11:31:30.557Z,6.62
2023-04-07T11:32:30.572Z,6.48
2023-04-07T11:33:30.493Z,6.43
2023-04-07T11:34:30.572Z,6.43
2023-04-07T11:35:31.407Z,6.47
2023-04-07T11:36:30.477Z,6.46
2023-04-07T11:37:30.466Z,6.53
2023-04-07T11:38:30.440Z,6.48
2023-04-07T11:39:30.482Z,6.44
2023-04-07T11:40:30.451Z,6.44
2023-04-07T11:41:30.417Z,6.43
2023-04-07T11:42:30.490Z,6.28
2023-04-07T11:43:30.496Z,6.25
2023-04-07T11:44:30.386Z,6.29
2023-04-07T11:45:30.390Z,6.32
2023-04-07T11:46:30.392Z,6.41
2023-04-07T11:47:30.416Z,6.18
2023-04-07T11:48:30.339Z,6.16
2023-04-07T11:49:30.341Z,6.21
2023-04-07T11:50:30.364Z,6.16
2023-04-07T11:51:30.305Z,6.22
2023-04-07T11:52:30.280Z,6.21
2023-04-07T11:53:30.296Z,6.26
2023-04-07T11:54:30.249Z,6.28
2023-04-07T11:55:30.276Z,6.38
2023-04-07T11:56:30.237Z,6.50
2023-04-07T11:57:30.272Z,6.43
2023-04-07T11:58:30.222Z,6.36
2023-04-07T11:59:30.231Z,6.21
2023-04-07T12:00:30.194Z,6.11
2023-04-07T12:01:30.248Z,6.11
2023-04-07T12:02:30.297Z,6.10
2023-04-07T12:03:30.311Z,6.22
2023-04-07T12:04:30.292Z,6.10
2023-04-07T12:05:30.152Z,6.11
2023-04-07T12:06:30.146Z,6.06
2023-04-07T12:07:30.139Z,6.03
2023-04-07T12:08:30.107Z,6.09
2023-04-07T12:09:30.113Z,6.14
2023-04-07T12:10:30.150Z,6.29
2023-04-07T12:11:30.122Z,6.38
2023-04-07T12:12:30.065Z,6.43
2023-04-07T12:13:30.069Z,6.46
2023-04-07T12:14:30.055Z,6.46
2023-04-07T12:15:30.027Z,6.46
2023-04-07T12:16:30.079Z,6.56
2023-04-07T12:17:30.040Z,6.62
2023-04-07T12:18:30.000Z,6.58
2023-04-07T12:19:30.044Z,6.46
2023-04-07T12:20:29.998Z,6.28
2023-04-07T12:21:29.977Z,6.06
2023-04-07T12:22:30.002Z,6.01
2023-04-07T12:23:29.964Z,5.95
2023-04-07T12:24:29.939Z,5.96
2023-04-07T12:25:29.928Z,6.00
2023-04-07T12:26:29.987Z,5.91
2023-04-07T12:27:42.276Z,5.91
2023-04-07T12:28:29.932Z,5.91
2023-04-07T12:29:29.969Z,6.00
2023-04-07T12:30:29.866Z,5.91
2023-04-07T12:31:29.885Z,5.95
2023-04-07T12:32:29.898Z,5.92
2023-04-07T12:33:29.845Z,5.88
2023-04-07T12:34:29.889Z,5.83
2023-04-07T12:35:29.880Z,5.89
2023-04-07T12:36:29.866Z,5.91
2023-04-07T12:37:29.813Z,5.88
2023-04-07T12:38:29.799Z,5.83
2023-04-07T12:39:29.780Z,5.83
2023-04-07T12:40:29.931Z,5.88
2023-04-07T12:41:29.762Z,5.92
2023-04-07T12:42:29.747Z,6.04
2023-04-07T12:43:29.754Z,6.13
2023-04-07T12:44:29.733Z,6.14
2023-04-07T12:45:29.707Z,6.18
2023-04-07T12:46:29.800Z,6.13
2023-04-07T12:47:29.743Z,6.01
2023-04-07T12:48:29.680Z,5.96
2023-04-07T12:49:29.684Z,5.92
2023-04-07T12:50:29.651Z,5.98
2023-04-07T12:51:29.670Z,5.96
2023-04-07T12:52:29.636Z,5.96
2023-04-07T12:53:29.654Z,5.85
2023-04-07T12:54:29.610Z,5.78
2023-04-07T12:55:29.604Z,5.77
2023-04-07T12:56:29.628Z,5.78
2023-04-07T12:57:29.613Z,5.86
2023-04-07T12:58:29.568Z,5.92
2023-04-07T12:59:29.569Z,5.96
2023-04-07T13:00:29.558Z,6.06
2023-04-07T13:01:29.705Z,6.06
2023-04-07T13:02:29.638Z,6.04
2023-04-07T13:03:29.819Z,6.06
2023-04-07T13:04:29.640Z,6.04
2023-04-07T13:05:29.507Z,5.96
2023-04-07T13:06:29.488Z,5.98
2023-04-07T13:07:29.512Z,6.04
2023-04-07T13:08:29.460Z,6.07
2023-04-07T13:09:29.461Z,6.01
2023-04-07T13:10:29.444Z,6.07
2023-04-07T13:11:29.465Z,6.14
2023-04-07T13:12:29.420Z,6.28
2023-04-07T13:13:29.417Z,6.36
2023-04-07T13:14:29.405Z,6.38
2023-04-07T13:15:29.415Z,6.32
2023-04-07T13:16:29.398Z,6.22
2023-04-07T13:17:29.431Z,6.22
2023-04-07T13:18:29.445Z,6.26
2023-04-07T13:19:29.362Z,6.28
2023-04-07T13:20:29.419Z,6.18
2023-04-07T13:21:45.238Z,6.13
2023-04-07T13:22:29.655Z,6.07
2023-04-07T13:23:29.339Z,6.09
2023-04-07T13:24:29.293Z,6.19
2023-04-07T13:25:29.344Z,6.19
2023-04-07T13:26:29.262Z,6.10
2023-04-07T13:27:29.297Z,6.11
2023-04-07T13:28:29.254Z,6.14
2023-04-07T13:29:29.259Z,6.19
2023-04-07T13:30:29.231Z,6.26
2023-04-07T13:31:29.230Z,6.26
2023-04-07T13:32:29.259Z,6.26
2023-04-07T13:33:29.241Z,6.16
2023-04-07T13:34:29.183Z,6.14
2023-04-07T13:35:29.190Z,6.25
2023-04-07T13:36:29.184Z,6.30
2023-04-07T13:37:29.183Z,6.32
2023-04-07T13:38:29.137Z,6.30
2023-04-07T13:39:29.191Z,6.32
2023-04-07T13:40:29.119Z,6.38
2023-04-07T13:41:29.136Z,6.41
2023-04-07T13:42:29.088Z,6.43
2023-04-07T13:43:29.104Z,6.47
2023-04-07T13:44:29.071Z,6.51
2023-04-07T13:45:29.074Z,6.43
2023-04-07T13:46:29.310Z,6.40
2023-04-07T13:47:29.101Z,6.41
2023-04-07T13:48:29.049Z,6.47
2023-04-07T13:49:29.041Z,6.44
2023-04-07T13:50:29.002Z,6.41
2023-04-07T13:51:29.018Z,6.35
2023-04-07T13:52:28.992Z,6.28
2023-04-07T13:53:28.988Z,6.25
2023-04-07T13:54:28.972Z,6.25
2023-04-07T13:55:28.973Z,6.29
2023-04-07T13:56:28.941Z,6.25
2023-04-07T13:57:28.938Z,6.22
2023-04-07T13:58:30.573Z,6.16
2023-04-07T13:59:28.932Z,6.16
2023-04-07T14:00:28.915Z,6.21
2023-04-07T14:01:28.977Z,6.21
2023-04-07T14:02:29.123Z,6.19
2023-04-07T14:03:28.964Z,6.22
2023-04-07T14:04:28.884Z,6.16
2023-04-07T14:05:28.848Z,6.10
2023-04-07T14:06:28.875Z,6.11
2023-04-07T14:07:28.829Z,6.10
2023-04-07T14:08:28.831Z,6.13
2023-04-07T14:09:28.812Z,6.10
2023-04-07T14:10:28.796Z,6.07
2023-04-07T14:11:28.813Z,6.04
2023-04-07T14:12:28.807Z,6.13
2023-04-07T14:13:28.783Z,6.14
2023-04-07T14:14:28.754Z,6.25
2023-04-07T14:15:28.772Z,6.29
2023-04-07T14:16:28.815Z,6.25
2023-04-07T14:17:28.783Z,6.21
2023-04-07T14:18:28.747Z,6.22
2023-04-07T14:19:28.733Z,6.32
2023-04-07T14:20:28.701Z,6.28
2023-04-07T14:21:28.679Z,6.26
2023-04-07T14:22:28.670Z,6.25
2023-04-07T14:23:36.701Z,6.22
2023-04-07T14:24:28.656Z,6.19
2023-04-07T14:25:28.631Z,6.19
2023-04-07T14:26:28.623Z,6.18
2023-04-07T14:27:30.521Z,6.28
2023-04-07T14:28:28.626Z,6.26
2023-04-07T14:29:28.616Z,6.25
2023-04-07T14:30:28.581Z,6.25
2023-04-07T14:31:28.594Z,6.30
2023-04-07T14:32:28.638Z,6.28
2023-04-07T14:33:28.609Z,6.22
2023-04-07T14:34:28.543Z,6.25
2023-04-07T14:35:28.546Z,6.28
2023-04-07T14:36:28.643Z,6.26
2023-04-07T14:37:28.551Z,6.28
2023-04-07T14:38:28.497Z,6.25
2023-04-07T14:39:28.496Z,6.18
2023-04-07T14:40:28.473Z,6.14
2023-04-07T14:41:28.472Z,6.14
2023-04-07T14:42:28.450Z,6.10
2023-04-07T14:43:28.440Z,6.07
2023-04-07T14:44:28.438Z,6.07
2023-04-07T14:45:28.421Z,6.06
2023-04-07T14:46:28.476Z,6.00
2023-04-07T14:47:28.453Z,6.00
2023-04-07T14:48:28.401Z,6.01
2023-04-07T14:49:28.401Z,6.06
2023-04-07T14:50:28.375Z,6.10
2023-04-07T14:51:28.365Z,6.09
2023-04-07T14:52:28.358Z,6.04
2023-04-07T14:53:28.349Z,6.04
2023-04-07T14:54:28.379Z,6.09
2023-04-07T14:55:28.332Z,6.10
2023-04-07T14:56:28.329Z,6.10
2023-04-07T14:57:28.297Z,6.09
2023-04-07T14:58:28.283Z,6.13
2023-04-07T14:59:28.299Z,6.14
2023-04-07T15:00:28.261Z,6.16
2023-04-07T15:01:28.301Z,6.14
2023-04-07T15:02:29.309Z,6.10
2023-04-07T15:03:28.469Z,6.06
2023-04-07T15:04:28.300Z,6.03
2023-04-07T15:05:28.215Z,5.96
2023-04-07T15:06:28.199Z,6.00
2023-04-07T15:07:28.200Z,5.98
2023-04-07T15:08:28.181Z,5.98
2023-04-07T15:09:28.173Z,5.96
2023-04-07T15:10:28.164Z,5.95
2023-04-07T15:11:28.151Z,6.00
2023-04-07T15:12:28.132Z,6.01
2023-04-07T15:13:28.170Z,6.07
2023-04-07T15:14:28.127Z,6.00
2023-04-07T15:15:28.111Z,5.95
2023-04-07T15:16:28.131Z,5.95
2023-04-07T15:17:40.546Z,5.96
2023-04-07T15:18:28.118Z,6.00
2023-04-07T15:19:28.105Z,6.00
2023-04-07T15:20:28.077Z,5.96
2023-04-07T15:21:28.041Z,5.96
2023-04-07T15:22:28.037Z,5.95
2023-04-07T15:23:28.025Z,5.96
2023-04-07T15:24:27.999Z,6.00
2023-04-07T15:25:28.004Z,6.04
2023-04-07T15:26:27.988Z,6.03
2023-04-07T15:27:27.976Z,6.00
2023-04-07T15:28:27.974Z,6.00
2023-04-07T15:29:27.986Z,5.98
2023-04-07T15:30:27.959Z,6.00
2023-04-07T15:31:27.999Z,5.98
2023-04-07T15:32:27.935Z,5.95
2023-04-07T15:33:27.932Z,5.96
2023-04-07T15:34:27.925Z,5.91
2023-04-07T15:35:27.944Z,5.89
2023-04-07T15:36:27.905Z,5.88
2023-04-07T15:37:27.878Z,5.88
2023-04-07T15:38:27.854Z,5.86
2023-04-07T15:39:27.855Z,5.89
2023-04-07T15:40:27.876Z,5.92
2023-04-07T15:41:27.835Z,5.89
2023-04-07T15:42:27.805Z,5.88
2023-04-07T15:43:27.808Z,5.86
2023-04-07T15:44:27.787Z,5.89
2023-04-07T15:45:27.786Z,5.91
2023-04-07T15:46:27.828Z,5.93
2023-04-07T15:47:27.820Z,5.92
2023-04-07T15:48:27.747Z,5.89
2023-04-07T15:49:27.739Z,5.83
2023-04-07T15:50:27.760Z,5.88
2023-04-07T15:51:27.739Z,5.88
2023-04-07T15:52:27.724Z,5.91
2023-04-07T15:53:27.695Z,5.95
2023-04-07T15:54:27.697Z,5.93
2023-04-07T15:55:27.691Z,5.95
2023-04-07T15:56:27.667Z,5.98
2023-04-07T15:57:27.654Z,5.93
2023-04-07T15:58:27.662Z,5.93
2023-04-07T15:59:27.639Z,5.93
2023-04-07T16:00:27.639Z,5.89
2023-04-07T16:01:27.659Z,5.85
2023-04-07T16:02:27.800Z,5.83
2023-04-07T16:03:27.802Z,5.81
2023-04-07T16:04:27.586Z,5.75
2023-04-07T16:05:27.578Z,5.78
2023-04-07T16:06:27.568Z,5.78
2023-04-07T16:07:27.543Z,5.77
2023-04-07T16:08:27.537Z,5.74
2023-04-07T16:09:27.529Z,5.71
2023-04-07T16:10:27.536Z,5.70
2023-04-07T16:11:27.505Z,5.75
2023-04-07T16:12:27.512Z,5.74
2023-04-07T16:13:27.502Z,5.74
2023-04-07T16:14:27.528Z,5.77
2023-04-07T16:15:39.522Z,5.77
2023-04-07T16:16:27.498Z,5.82
2023-04-07T16:17:27.442Z,5.82
2023-04-07T16:18:27.434Z,5.85
2023-04-07T16:19:27.424Z,5.85
2023-04-07T16:20:27.414Z,5.82
2023-04-07T16:21:27.390Z,5.85
2023-04-07T16:22:27.395Z,5.82
2023-04-07T16:23:27.402Z,5.82
2023-04-07T16:24:27.405Z,5.78
2023-04-07T16:25:27.389Z,5.78
2023-04-07T16:26:27.352Z,5.85
2023-04-07T16:27:27.393Z,5.86
2023-04-07T16:28:27.397Z,5.89
2023-04-07T16:29:27.317Z,5.92
2023-04-07T16:30:27.345Z,5.92
2023-04-07T16:31:27.353Z,5.91
2023-04-07T16:32:27.391Z,5.91
2023-04-07T16:33:27.267Z,5.83
2023-04-07T16:34:27.265Z,5.81
2023-04-07T16:35:27.260Z,5.75
2023-04-07T16:36:27.249Z,5.73
2023-04-07T16:37:27.231Z,5.75
2023-04-07T16:38:27.256Z,5.83
2023-04-07T16:39:29.309Z,5.85
2023-04-07T16:40:27.212Z,5.88
2023-04-07T16:41:27.209Z,5.88
2023-04-07T16:42:27.178Z,5.89
2023-04-07T16:43:27.164Z,5.92
2023-04-07T16:44:27.410Z,5.93
2023-04-07T16:45:27.164Z,5.95
2023-04-07T16:46:27.173Z,5.98
2023-04-07T16:47:27.142Z,5.95
2023-04-07T16:48:27.115Z,5.96
2023-04-07T16:49:27.110Z,5.93
2023-04-07T16:50:27.099Z,5.92
2023-04-07T16:51:27.098Z,5.93
2023-04-07T16:52:27.081Z,5.92
2023-04-07T16:53:27.113Z,5.88
2023-04-07T16:54:27.066Z,5.86
2023-04-07T16:55:27.038Z,5.89
2023-04-07T16:56:27.044Z,5.88
2023-04-07T16:57:27.031Z,5.82
2023-04-07T16:58:27.022Z,5.85
2023-04-07T16:59:26.997Z,5.82
2023-04-07T17:00:27.027Z,5.88
2023-04-07T17:01:27.055Z,5.88
2023-04-07T17:02:27.054Z,5.85
2023-04-07T17:03:27.128Z,5.89
2023-04-07T17:04:27.035Z,5.91
2023-04-07T17:05:26.932Z,5.95
2023-04-07T17:06:26.941Z,5.92
2023-04-07T17:07:26.935Z,5.92
2023-04-07T17:08:26.897Z,5.92
2023-04-07T17:09:26.882Z,5.93
2023-04-07T17:10:26.887Z,5.95
2023-04-07T17:11:26.871Z,5.95
2023-04-07T17:12:26.860Z,5.96
2023-04-07T17:13:26.837Z,5.95
2023-04-07T17:14:26.832Z,5.95
2023-04-07T17:15:26.831Z,5.98
2023-04-07T17:16:26.901Z,5.96
2023-04-07T17:17:26.880Z,6.01
2023-04-07T17:18:26.786Z,5.98